Météo Nord-Pas-de-Calais   La météo au plus près de chez vous

Station météorologique

Observations météo à Marignane (13054)

13054001 6 m Dernier relevé à 14:24
32°C
Humidité 41 % Vent 20.5 km/h 1017.4 hPa

Journée consultée

Lundi 31 Août 2026

Synthèse de la journée

Périodes de référence en UTC

Température maximale

32.5°C

à 13:00

06h 06h

Température minimale

19°C

à 06:42

18h 18h

Rafale maximale

34 km/h

à 13:48

00h 00h

Précipitations

0 mm

Cumul quotidien

06h 06h

Ensoleillement

6h 56 mins

Durée quotidienne

00h 00h

Graphiques de la journée

Heure locale Réduire

Données détaillées

Relevés météo

Pas de 6 minutes Afficher les relevés infra-horaires
Relevés météo détaillés à Marignane pour le Lundi 31 Août 2026
Heure Température °C Point de rosée °C Humidité % Vent moyen (raf.), km/h Précipitations mm Température à 10 cm °C Température à 20 cm °C Température à 50 cm °C Température à 100 cm °C Visibilité m État du sol   Hauteur neige cm Ensoleillement min Rayonnement global W/m² Pression hPa Nébulosité Octas
14:24 32 °C 17.9 °C 43 % 25 km/h (32 km/h) 0 mm0 mm 25.8 °C 25.6 °C 25.5 °C 24.6 °C 19680 m 0   0 cm 6 min 280.4 W/m² 1017 hPa
14:18 32 °C 17.9 °C 43 % 25 km/h (32 km/h) 0 mm0 mm 25.7 °C 25.6 °C 25.5 °C 24.6 °C 19970 m 0   0 cm 6 min 280.8 W/m² 1017.1 hPa
14:12 31.7 °C 17.6 °C 43 % 21 km/h (28 km/h) 0 mm0 mm 25.7 °C 25.6 °C 25.5 °C 24.6 °C 19600 m 0   0 cm 6 min 281.1 W/m² 1017.2 hPa
14:06 31.7 °C 18.7 °C 46 % 19 km/h (24 km/h) 0 mm0 mm 25.7 °C 25.6 °C 25.5 °C 24.6 °C 19930 m 0   0 cm 6 min 280.7 W/m² 1017.2 hPa
14:00 31.4 °C 16.9 °C 42 % 21 km/h (30 km/h) 0 mm0 mm 25.6 °C 25.6 °C 25.5 °C 24.6 °C 8610 m 0   0 cm 6 min 279.5 W/m² 1017.2 hPa
13:54 32 °C 16.7 °C 40 % 24 km/h (33 km/h) 0 mm0 mm 25.6 °C 25.6 °C 25.5 °C 24.6 °C 3340 m 0   0 cm 6 min 279.1 W/m² 1017.3 hPa
13:48 32.3 °C 16.6 °C 39 % 26 km/h (33 km/h) 0 mm0 mm 25.6 °C 25.6 °C 25.5 °C 24.7 °C 3150 m 0   0 cm 6 min 277.5 W/m² 1017.2 hPa
13:42 32.4 °C 16.7 °C 39 % 24 km/h (33 km/h) 0 mm0 mm 25.5 °C 25.6 °C 25.5 °C 24.6 °C 3630 m 0   0 cm 6 min 275.7 W/m² 1017.3 hPa
13:36 32.2 °C 16.1 °C 38 % 23 km/h (33 km/h) 0 mm0 mm 25.5 °C 25.6 °C 25.5 °C 24.6 °C 4180 m 0   0 cm 6 min 273.8 W/m² 1017.3 hPa
13:30 32.1 °C 17.2 °C 41 % 23 km/h (30 km/h) 0 mm0 mm 25.4 °C 25.6 °C 25.5 °C 24.7 °C 4610 m 0   0 cm 6 min 272.5 W/m² 1017.3 hPa
13:24 31.8 °C 16.9 °C 41 % 21 km/h (30 km/h) 0 mm0 mm 25.4 °C 25.6 °C 25.5 °C 24.6 °C 4980 m 0   0 cm 6 min 271 W/m² 1017.4 hPa
13:18 31.6 °C 17.5 °C 43 % 20 km/h (28 km/h) 0 mm0 mm 25.4 °C 25.7 °C 25.5 °C 24.7 °C 5290 m 0   0 cm 6 min 269.4 W/m² 1017.4 hPa
13:12 31.9 °C 16.6 °C 40 % 25 km/h (33 km/h) 0 mm0 mm 25.3 °C 25.6 °C 25.5 °C 24.6 °C 5910 m 0   0 cm 6 min 270.3 W/m² 1017.5 hPa
13:06 31.9 °C 16.2 °C 39 % 27 km/h (33 km/h) 0 mm0 mm 25.3 °C 25.6 °C 25.5 °C 24.6 °C 6730 m 0   0 cm 6 min 269 W/m² 1017.5 hPa
13:00 32 °C 17.5 °C 42 % 24 km/h (31 km/h) 0 mm0 mm 25.3 °C 25.6 °C 25.5 °C 24.6 °C 7640 m 0   0 cm 6 min 269.2 W/m² 1017.4 hPa
12:54 32.2 °C 16.5 °C 39 % 24 km/h (33 km/h) 0 mm0 mm 25.3 °C 25.7 °C 25.5 °C 24.6 °C 8610 m 0   0 cm 6 min 268.7 W/m² 1017.4 hPa
12:48 31.9 °C 16.6 °C 40 % 24 km/h (33 km/h) 0 mm0 mm 25.2 °C 25.7 °C 25.5 °C 24.6 °C 9950 m 0   0 cm 6 min 268 W/m² 1017.4 hPa
12:42 31.6 °C 16.7 °C 41 % 23 km/h (32 km/h) 0 mm0 mm 25.2 °C 25.6 °C 25.5 °C 24.6 °C 11860 m 0   0 cm 6 min 269.1 W/m² 1017.3 hPa
12:36 31.2 °C 16.4 °C 41 % 21 km/h (30 km/h) 0 mm0 mm 25.2 °C 25.6 °C 25.5 °C 24.6 °C 15360 m 0   0 cm 6 min 269 W/m² 1017.3 hPa
12:30 30 °C 18.1 °C 49 % 15 km/h (28 km/h) 0 mm0 mm 25.2 °C 25.7 °C 25.5 °C 24.6 °C 18810 m 0   0 cm 6 min 267.7 W/m² 1017.3 hPa
12:24 29.3 °C 18.4 °C 52 % 15 km/h (21 km/h) 0 mm0 mm 25.2 °C 25.7 °C 25.5 °C 24.6 °C 19640 m 0   0 cm 6 min 266.2 W/m² 1017.3 hPa
12:18 29.2 °C 17.7 °C 50 % 17 km/h (21 km/h) 0 mm0 mm 25.1 °C 25.7 °C 25.5 °C 24.6 °C 20470 m 0   0 cm 6 min 265 W/m² 1017.4 hPa
12:12 29.4 °C 17.9 °C 50 % 17 km/h (20 km/h) 0 mm0 mm 25.1 °C 25.7 °C 25.5 °C 24.6 °C 19170 m 0   0 cm 6 min 262.9 W/m² 1017.5 hPa
12:06 29.3 °C 17.8 °C 50 % 16 km/h (19 km/h) 0 mm0 mm 25.1 °C 25.7 °C 25.5 °C 24.6 °C 23010 m 0   0 cm 6 min 259.8 W/m² 1017.5 hPa
12:00 28.5 °C 17.1 °C 50 % 15 km/h (19 km/h) 0 mm0 mm 25.1 °C 25.7 °C 25.5 °C 24.6 °C 23710 m 0   0 cm 6 min 256.4 W/m² 1017.6 hPa
11:54 28.3 °C 17.2 °C 51 % 17 km/h (21 km/h) 0 mm0 mm 25.1 °C 25.7 °C 25.5 °C 24.6 °C 24460 m 0   0 cm 6 min 252.7 W/m² 1017.6 hPa
11:48 28.6 °C 17.8 °C 52 % 19 km/h (24 km/h) 0 mm0 mm 25.1 °C 25.7 °C 25.5 °C 24.6 °C 25930 m 0   0 cm 6 min 248.4 W/m² 1017.5 hPa
11:42 28.7 °C 18.5 °C 54 % 21 km/h (25 km/h) 0 mm0 mm 25.1 °C 25.7 °C 25.5 °C 24.6 °C 29970 m 0   0 cm 6 min 245.3 W/m² 1017.6 hPa
11:36 28.7 °C 17.9 °C 52 % 17 km/h (24 km/h) 0 mm0 mm 25.1 °C 25.7 °C 25.5 °C 24.6 °C 34910 m 0   0 cm 6 min 241.1 W/m² 1017.5 hPa
11:30 28.1 °C 17 °C 51 % 15 km/h (18 km/h) 0 mm0 mm 25.1 °C 25.7 °C 25.5 °C 24.6 °C 37260 m 0   0 cm 6 min 236.5 W/m² 1017.6 hPa
11:24 27.6 °C 17.7 °C 55 % 16 km/h (21 km/h) 0 mm0 mm 25.1 °C 25.8 °C 25.5 °C 24.7 °C 39160 m 0   0 cm 6 min 231.6 W/m² 1017.7 hPa
11:18 27.2 °C 17.1 °C 54 % 18 km/h (22 km/h) 0 mm0 mm 25.1 °C 25.8 °C 25.5 °C 24.7 °C 41250 m 0   0 cm 6 min 226.5 W/m² 1017.6 hPa
11:12 27.3 °C 17.5 °C 55 % 17 km/h (20 km/h) 0 mm0 mm 25.1 °C 25.8 °C 25.5 °C 24.6 °C 19770 m 0   0 cm 6 min 221 W/m² 1017.6 hPa
11:06 27 °C 17.5 °C 56 % 16 km/h (20 km/h) 0 mm0 mm 25.1 °C 25.8 °C 25.5 °C 24.6 °C 18230 m 0   0 cm 6 min 217.2 W/m² 1017.6 hPa
11:00 26.6 °C 16.5 °C 54 % 15 km/h (20 km/h) 0 mm0 mm 25.1 °C 25.8 °C 25.5 °C 24.6 °C 18230 m 0   0 cm 6 min 213.2 W/m² 1017.5 hPa
10:54 26.5 °C 17.3 °C 57 % 13 km/h (18 km/h) 0 mm0 mm 25.1 °C 25.8 °C 25.5 °C 24.6 °C 49880 m 1   0 cm 5 min 188.6 W/m² 1017.4 hPa
10:48 26 °C 17.4 °C 59 % 12 km/h (15 km/h) 0 mm0 mm 25.1 °C 25.8 °C 25.5 °C 24.6 °C 52680 m 0   0 cm 2 min 134.2 W/m² 1017.4 hPa
10:42 26.3 °C 17.4 °C 58 % 11 km/h (14 km/h) 0 mm0 mm 25.1 °C 25.8 °C 25.5 °C 24.6 °C 54390 m 0   0 cm 6 min 204.8 W/m² 1017.4 hPa
10:36 26.3 °C 17.1 °C 57 % 12 km/h (15 km/h) 0 mm0 mm 25.1 °C 25.8 °C 25.5 °C 24.6 °C 55740 m 0   0 cm 6 min 191.6 W/m² 1017.4 hPa
10:30 25.9 °C 17.5 °C 60 % 10 km/h (14 km/h) 0 mm0 mm 25.1 °C 25.8 °C 25.5 °C 24.6 °C 56960 m 0   0 cm 6 min 185.5 W/m² 1017.3 hPa
10:24 25.7 °C 17.4 °C 60 % 9 km/h (11 km/h) 0 mm0 mm 25.1 °C 25.8 °C 25.5 °C 24.6 °C 58100 m 0   0 cm 6 min 180.6 W/m² 1017.2 hPa
10:18 25.7 °C 17.9 °C 62 % 9 km/h (12 km/h) 0 mm0 mm 25.1 °C 25.8 °C 25.5 °C 24.6 °C 57990 m 0   0 cm 6 min 175.7 W/m² 1017.2 hPa
10:12 25.5 °C 17.9 °C 63 % 7 km/h (12 km/h) 0 mm0 mm 25.1 °C 25.8 °C 25.5 °C 24.6 °C 49800 m 0   0 cm 6 min 170.8 W/m² 1017.2 hPa
10:06 25.4 °C 18.3 °C 65 % 5 km/h (9 km/h) 0 mm0 mm 25.1 °C 25.9 °C 25.5 °C 24.6 °C 23330 m 0   0 cm 6 min 165.4 W/m² 1017.2 hPa
10:00 25 °C 18.2 °C 66 % 5 km/h (9 km/h) 0 mm0 mm 25.1 °C 25.8 °C 25.5 °C 24.6 °C 14500 m 0   0 cm 6 min 159.6 W/m² 1017 hPa
09:54 25 °C 18.2 °C 66 % 6 km/h (14 km/h) 0 mm0 mm 25.1 °C 25.9 °C 25.5 °C 24.6 °C 16470 m 0   0 cm 6 min 153.7 W/m² 1017 hPa
09:48 24.7 °C 17.9 °C 66 % 7 km/h (15 km/h) 0 mm0 mm 25.1 °C 25.9 °C 25.5 °C 24.6 °C 19960 m 0   0 cm 6 min 148 W/m² 1017.1 hPa
09:42 24.7 °C 18.2 °C 67 % 8 km/h (15 km/h) 0 mm0 mm 25.1 °C 25.9 °C 25.5 °C 24.6 °C 19580 m 0   0 cm 6 min 141.9 W/m² 1017.1 hPa
09:36 24.5 °C 18 °C 67 % 8 km/h (11 km/h) 0 mm0 mm 25.1 °C 25.9 °C 25.5 °C 24.7 °C 19580 m 0   0 cm 6 min 135.6 W/m² 1017.1 hPa
09:30 24.6 °C 18.3 °C 68 % 9 km/h (16 km/h) 0 mm0 mm 25.2 °C 25.9 °C 25.5 °C 24.6 °C 50150 m 0   0 cm 6 min 129.4 W/m² 1017.1 hPa
09:24 24.4 °C 18.1 °C 68 % 9 km/h (13 km/h) 0 mm0 mm 25.2 °C 25.9 °C 25.5 °C 24.6 °C 51370 m 0   0 cm 6 min 123.5 W/m² 1017.1 hPa
09:18 24.4 °C 18.8 °C 71 % 8 km/h (13 km/h) 0 mm0 mm 25.2 °C 25.9 °C 25.5 °C 24.6 °C 53840 m 0   0 cm 6 min 117.9 W/m² 1017.1 hPa
09:12 24.3 °C 18.2 °C 69 % 6 km/h (9 km/h) 0 mm0 mm 25.2 °C 25.9 °C 25.5 °C 24.6 °C 56260 m 0   0 cm 6 min 111.5 W/m² 1017.1 hPa
09:06 24.3 °C 18 °C 68 % 8 km/h (12 km/h) 0 mm0 mm 25.2 °C 26 °C 25.5 °C 24.6 °C 37080 m 0   0 cm 6 min 105.1 W/m² 1017.1 hPa
09:00 24.3 °C 18.7 °C 71 % 8 km/h (12 km/h) 0 mm0 mm 25.2 °C 26 °C 25.5 °C 24.6 °C 31550 m 0   0 cm 6 min 98.8 W/m² 1017.1 hPa
08:54 24.2 °C 18.6 °C 71 % 6 km/h (9 km/h) 0 mm0 mm 25.2 °C 26 °C 25.5 °C 24.6 °C 31660 m 0   0 cm 6 min 92.1 W/m² 1016.9 hPa
08:48 24 °C 18.6 °C 72 % 5 km/h (8 km/h) 0 mm0 mm 25.3 °C 26 °C 25.5 °C 24.6 °C 29110 m 0   0 cm 6 min 85.2 W/m² 1016.9 hPa
08:42 23.9 °C 18.8 °C 73 % 5 km/h (8 km/h) 0 mm0 mm 25.3 °C 26 °C 25.5 °C 24.6 °C 22680 m 0   0 cm 6 min 77.4 W/m² 1016.8 hPa
08:36 23.6 °C 18.9 °C 75 % 4 km/h (7 km/h) 0 mm0 mm 25.3 °C 26 °C 25.5 °C 24.6 °C 23970 m 0   0 cm 6 min 70.5 W/m² 1016.8 hPa
08:30 23.3 °C 18.8 °C 76 % 5 km/h (6 km/h) 0 mm0 mm 25.3 °C 26 °C 25.5 °C 24.7 °C 37780 m 0   0 cm 6 min 64.5 W/m² 1016.8 hPa
08:24 23 °C 18.7 °C 77 % 5 km/h (8 km/h) 0 mm0 mm 25.3 °C 26 °C 25.5 °C 24.6 °C 36940 m 0   0 cm 6 min 59.6 W/m² 1016.7 hPa
08:18 22.5 °C 18.3 °C 77 % 5 km/h (8 km/h) 0 mm0 mm 25.3 °C 26.1 °C 25.5 °C 24.7 °C 39910 m 0   0 cm 6 min 54.6 W/m² 1016.8 hPa
08:12 22 °C 18 °C 78 % 2 km/h (5 km/h) 0 mm0 mm 25.4 °C 26 °C 25.5 °C 24.6 °C 44560 m 0   0 cm 6 min 48.8 W/m² 1016.7 hPa
08:06 21.6 °C 17.6 °C 78 % 3 km/h (4 km/h) 0 mm0 mm 25.4 °C 26 °C 25.5 °C 24.6 °C 43840 m 0   0 cm 6 min 42.3 W/m² 1016.7 hPa
08:00 21.3 °C 17.7 °C 80 % 5 km/h (8 km/h) 0 mm0 mm 25.4 °C 26.1 °C 25.5 °C 24.6 °C 35760 m 0   0 cm 6 min 36.1 W/m² 1016.8 hPa
07:54 20.9 °C 17.7 °C 82 % 6 km/h (8 km/h) 0 mm0 mm 25.4 °C 26.1 °C 25.5 °C 24.6 °C 30470 m 0   0 cm 6 min 30.7 W/m² 1016.7 hPa
07:48 20.6 °C 17.6 °C 83 % 5 km/h (8 km/h) 0 mm0 mm 25.5 °C 26.1 °C 25.5 °C 24.6 °C 25670 m 0   0 cm 6 min 25.3 W/m² 1016.7 hPa
07:42 20.2 °C 17.4 °C 84 % 6 km/h (9 km/h) 0 mm0 mm 25.5 °C 26.1 °C 25.5 °C 24.6 °C 13030 m 0   0 cm 6 min 20.3 W/m² 1016.8 hPa
07:36 19.9 °C 17.1 °C 84 % 6 km/h (9 km/h) 0 mm0 mm 25.5 °C 26.1 °C 25.5 °C 24.6 °C 14590 m 0   0 cm 6 min 15.7 W/m² 1016.8 hPa
07:30 19.7 °C 16.9 °C 84 % 5 km/h (7 km/h) 0 mm0 mm 25.5 °C 26.1 °C 25.5 °C 24.7 °C 35470 m 0   0 cm 6 min 11.8 W/m² 1016.7 hPa
07:24 19.5 °C 16.7 °C 84 % 5 km/h (7 km/h) 0 mm0 mm 25.5 °C 26.1 °C 25.5 °C 24.6 °C 34130 m 0   0 cm 1 min 6.1 W/m² 1016.8 hPa
07:18 19.4 °C 16.4 °C 83 % 6 km/h (8 km/h) 0 mm0 mm 25.5 °C 26.1 °C 25.5 °C 24.6 °C 40490 m 0   0 cm 0 min 0 W/m² 1016.8 hPa
07:12 19.5 °C 16.5 °C 83 % 6 km/h (8 km/h) 0 mm0 mm 25.5 °C 26.1 °C 25.5 °C 24.6 °C 51190 m 0   0 cm 0 min 0 W/m² 1016.7 hPa
07:06 19.5 °C 16.3 °C 82 % 5 km/h (8 km/h) 0 mm0 mm 25.6 °C 26.1 °C 25.5 °C 24.6 °C 55410 m 0   0 cm 0 min 0 W/m² 1016.8 hPa
07:00 19.6 °C 16.4 °C 82 % 5 km/h (7 km/h) 0 mm0 mm 25.6 °C 26.2 °C 25.5 °C 24.7 °C 55410 m 0   0 cm 0 min 0 W/m² 1016.8 hPa 7 Octas
06:54 19.4 °C 16.6 °C 84 % 7 km/h (11 km/h) 0 mm0 mm 25.6 °C 26.2 °C 25.5 °C 24.7 °C 60000 m 0   0 cm 0 min 0 W/m² 1016.9 hPa
06:48 19.2 °C 16.4 °C 84 % 9 km/h (12 km/h) 0 mm0 mm 25.7 °C 26.2 °C 25.5 °C 24.7 °C 59640 m 0   0 cm 0 min 0 W/m² 1016.8 hPa
06:42 19 °C 16.2 °C 84 % 10 km/h (11 km/h) 0 mm0 mm 25.7 °C 26.2 °C 25.5 °C 24.7 °C 58840 m 0   0 cm 0 min 0 W/m² 1016.7 hPa
06:36 19.3 °C 16.3 °C 83 % 10 km/h (11 km/h) 0 mm0 mm 25.7 °C 26.2 °C 25.5 °C 24.7 °C 59190 m 0   0 cm 0 min 0 W/m² 1016.7 hPa
06:30 19.3 °C 16.5 °C 84 % 11 km/h (12 km/h) 0 mm0 mm 25.7 °C 26.3 °C 25.5 °C 24.7 °C 59570 m 0   0 cm 0 min 0 W/m² 1016.7 hPa
06:24 19.3 °C 16.7 °C 85 % 11 km/h (12 km/h) 0 mm0 mm 25.7 °C 26.3 °C 25.5 °C 24.7 °C 59940 m 0   0 cm 0 min 0 W/m² 1016.6 hPa
06:18 19.3 °C 16.7 °C 85 % 10 km/h (11 km/h) 0 mm0 mm 25.8 °C 26.2 °C 25.5 °C 24.6 °C 59090 m 0   0 cm 0 min 0 W/m² 1016.6 hPa
06:12 19.3 °C 16.5 °C 84 % 8 km/h (11 km/h) 0 mm0 mm 25.8 °C 26.2 °C 25.5 °C 24.6 °C 58140 m 0   0 cm 0 min 0 W/m² 1016.6 hPa
06:06 19.2 °C 16.6 °C 85 % 5 km/h (10 km/h) 0 mm0 mm 25.8 °C 26.3 °C 25.5 °C 24.6 °C 57520 m 0   0 cm 0 min 0 W/m² 1016.6 hPa
06:00 19.2 °C 16.2 °C 83 % 4 km/h (8 km/h) 0 mm0 mm 25.8 °C 26.3 °C 25.5 °C 24.6 °C 59620 m 0   0 cm 0 min 0 W/m² 1016.5 hPa
05:54 19.8 °C 16.4 °C 81 % 5 km/h (7 km/h) 0 mm0 mm 25.8 °C 26.3 °C 25.5 °C 24.7 °C 59830 m 0   0 cm 0 min 0 W/m² 1016.6 hPa
05:48 20.7 °C 17.3 °C 81 % 5 km/h (7 km/h) 0 mm0 mm 25.9 °C 26.3 °C 25.5 °C 24.7 °C 60000 m 0   0 cm 0 min 0 W/m² 1016.4 hPa
05:42 20.6 °C 17.2 °C 81 % 5 km/h (8 km/h) 0 mm0 mm 25.9 °C 26.3 °C 25.4 °C 24.6 °C 60000 m 0   0 cm 0 min 0 W/m² 1016.4 hPa
05:36 20.3 °C 16.7 °C 80 % 7 km/h (8 km/h) 0 mm0 mm 25.9 °C 26.3 °C 25.5 °C 24.7 °C 59760 m 0   0 cm 0 min 0 W/m² 1016.4 hPa
05:30 20.4 °C 16.4 °C 78 % 6 km/h (8 km/h) 0 mm0 mm 25.9 °C 26.3 °C 25.5 °C 24.7 °C 59760 m 0   0 cm 0 min 0 W/m² 1016.5 hPa
05:24 20.7 °C 16.5 °C 77 % 5 km/h (6 km/h) 0 mm0 mm 26 °C 26.3 °C 25.5 °C 24.6 °C 60000 m 0   0 cm 0 min 0 W/m² 1016.6 hPa
05:18 20.8 °C 16.4 °C 76 % 3 km/h (5 km/h) 0 mm0 mm 25.9 °C 26.3 °C 25.4 °C 24.6 °C 60000 m 0   0 cm 0 min 0 W/m² 1016.6 hPa
05:12 20.8 °C 16.4 °C 76 % 3 km/h (5 km/h) 0 mm0 mm 25.9 °C 26.3 °C 25.4 °C 24.6 °C 60000 m 0   0 cm 0 min 0 W/m² 1016.6 hPa
05:06 21 °C 16.6 °C 76 % 4 km/h (5 km/h) 0 mm0 mm 26 °C 26.3 °C 25.5 °C 24.7 °C 60000 m 0   0 cm 0 min 0 W/m² 1016.6 hPa
05:00 20.8 °C 16.6 °C 77 % 5 km/h (6 km/h) 0 mm0 mm 26 °C 26.3 °C 25.5 °C 24.7 °C 60000 m 0   0 cm 0 min 0 W/m² 1016.4 hPa
04:54 20.4 °C 16.6 °C 79 % 7 km/h (10 km/h) 0 mm0 mm 26.1 °C 26.4 °C 25.5 °C 24.7 °C 60000 m 0   0 cm 0 min 0 W/m² 1016.3 hPa
04:48 19.9 °C 16.3 °C 80 % 9 km/h (10 km/h) 0 mm0 mm 26.1 °C 26.3 °C 25.5 °C 24.7 °C 60000 m 0   0 cm 0 min 0 W/m² 1016.3 hPa
04:42 19.8 °C 16.4 °C 81 % 9 km/h (10 km/h) 0 mm0 mm 26.1 °C 26.4 °C 25.5 °C 24.7 °C 60000 m 0   0 cm 0 min 0 W/m² 1016.2 hPa
04:36 19.9 °C 16.5 °C 81 % 8 km/h (10 km/h) 0 mm0 mm 26.1 °C 26.4 °C 25.5 °C 24.7 °C 60000 m 0   0 cm 0 min 0 W/m² 1016.2 hPa
04:30 20 °C 16.8 °C 82 % 5 km/h (8 km/h) 0 mm0 mm 26.1 °C 26.3 °C 25.4 °C 24.6 °C 60000 m 0   0 cm 0 min 0 W/m² 1016.2 hPa
04:24 19.9 °C 17.1 °C 84 % 7 km/h (12 km/h) 0 mm0 mm 26.2 °C 26.4 °C 25.4 °C 24.7 °C 60000 m 0   0 cm 0 min 0 W/m² 1016.2 hPa
04:18 19.8 °C 17 °C 84 % 11 km/h (12 km/h) 0 mm0 mm 26.2 °C 26.4 °C 25.4 °C 24.6 °C 60000 m 0   0 cm 0 min 0 W/m² 1016.2 hPa
04:12 19.8 °C 16.8 °C 83 % 12 km/h (14 km/h) 0 mm0 mm 26.2 °C 26.4 °C 25.5 °C 24.7 °C 60000 m 0   0 cm 0 min 0 W/m² 1016.2 hPa
04:06 19.9 °C 16.9 °C 83 % 12 km/h (14 km/h) 0 mm0 mm 26.2 °C 26.4 °C 25.4 °C 24.7 °C 60000 m 0   0 cm 0 min 0 W/m² 1016.3 hPa
04:00 19.9 °C 16.9 °C 83 % 11 km/h (13 km/h) 0 mm0 mm 26.2 °C 26.4 °C 25.4 °C 24.7 °C 60000 m 0   0 cm 0 min 0 W/m² 1016.3 hPa
03:54 19.9 °C 16.9 °C 83 % 10 km/h (13 km/h) 0 mm0 mm 26.3 °C 26.4 °C 25.4 °C 24.7 °C 60000 m 0   0 cm 0 min 0 W/m² 1016.4 hPa
03:48 20.1 °C 16.9 °C 82 % 9 km/h (11 km/h) 0 mm0 mm 26.3 °C 26.4 °C 25.4 °C 24.6 °C 60000 m 0   0 cm 0 min 0 W/m² 1016.4 hPa
03:42 20.2 °C 17 °C 82 % 9 km/h (10 km/h) 0 mm0 mm 26.3 °C 26.4 °C 25.5 °C 24.7 °C 60000 m 0   0 cm 0 min 0 W/m² 1016.4 hPa
03:36 20.3 °C 16.9 °C 81 % 9 km/h (10 km/h) 0 mm0 mm 26.3 °C 26.4 °C 25.4 °C 24.7 °C 60000 m 0   0 cm 0 min 0 W/m² 1016.5 hPa
03:30 20.4 °C 17 °C 81 % 8 km/h (9 km/h) 0 mm0 mm 26.3 °C 26.4 °C 25.4 °C 24.6 °C 60000 m 0   0 cm 0 min 0 W/m² 1016.4 hPa
03:24 20.4 °C 16.8 °C 80 % 8 km/h (9 km/h) 0 mm0 mm 26.4 °C 26.4 °C 25.4 °C 24.7 °C 60000 m 0   0 cm 0 min 0 W/m² 1016.5 hPa
03:18 20.8 °C 17 °C 79 % 7 km/h (9 km/h) 0 mm0 mm 26.4 °C 26.4 °C 25.4 °C 24.7 °C 60000 m 0   0 cm 0 min 0 W/m² 1016.5 hPa
03:12 21.3 °C 17.3 °C 78 % 7 km/h (9 km/h) 0 mm0 mm 26.4 °C 26.4 °C 25.4 °C 24.6 °C 60000 m 0   0 cm 0 min 0 W/m² 1016.5 hPa
03:06 20.9 °C 17.3 °C 80 % 8 km/h (9 km/h) 0 mm0 mm 26.4 °C 26.4 °C 25.4 °C 24.7 °C 60000 m 0   0 cm 0 min 0 W/m² 1016.5 hPa
03:00 20.4 °C 17 °C 81 % 8 km/h (10 km/h) 0 mm0 mm 26.5 °C 26.4 °C 25.4 °C 24.7 °C 60000 m 0   0 cm 0 min 0 W/m² 1016.5 hPa
02:54 20.5 °C 17.3 °C 82 % 10 km/h (14 km/h) 0 mm0 mm 26.5 °C 26.4 °C 25.4 °C 24.7 °C 60000 m 0   0 cm 0 min 0 W/m² 1016.5 hPa
02:48 20 °C 17 °C 83 % 13 km/h (14 km/h) 0 mm0 mm 26.5 °C 26.4 °C 25.4 °C 24.7 °C 60000 m 0   0 cm 0 min 0 W/m² 1016.7 hPa
02:42 20.2 °C 17 °C 82 % 12 km/h (14 km/h) 0 mm0 mm 26.6 °C 26.4 °C 25.4 °C 24.6 °C 60000 m 0   0 cm 0 min 0 W/m² 1016.8 hPa
02:36 20.2 °C 17 °C 82 % 11 km/h (13 km/h) 0 mm0 mm 26.5 °C 26.4 °C 25.4 °C 24.7 °C 60000 m 0   0 cm 0 min 0 W/m² 1016.8 hPa
02:30 20 °C 17 °C 83 % 10 km/h (12 km/h) 0 mm0 mm 26.6 °C 26.4 °C 25.4 °C 24.7 °C 60000 m 0   0 cm 0 min 0 W/m² 1016.8 hPa
02:24 20 °C 17 °C 83 % 8 km/h (10 km/h) 0 mm0 mm 26.6 °C 26.4 °C 25.4 °C 24.6 °C 60000 m 0   0 cm 0 min 0 W/m² 1016.8 hPa
02:18 19.9 °C 17.1 °C 84 % 4 km/h (8 km/h) 0 mm0 mm 26.6 °C 26.4 °C 25.4 °C 24.7 °C 60000 m 0   0 cm 0 min 0 W/m² 1016.8 hPa
02:12 20.1 °C 16.7 °C 81 % 4 km/h (6 km/h) 0 mm0 mm 26.6 °C 26.4 °C 25.4 °C 24.7 °C 60000 m 0   0 cm 0 min 0 W/m² 1016.7 hPa
02:06 20.6 °C 17 °C 80 % 6 km/h (9 km/h) 0 mm0 mm 26.6 °C 26.5 °C 25.4 °C 24.7 °C 60000 m 0   0 cm 0 min 0 W/m² 1016.7 hPa
02:00 20.4 °C 17.2 °C 82 % 8 km/h (11 km/h) 0 mm0 mm 26.7 °C 26.5 °C 25.4 °C 24.7 °C 60000 m 0   0 cm 0 min 0 W/m² 1016.7 hPa
01:54 20.6 °C 17.2 °C 81 % 10 km/h (11 km/h) 0 mm0 mm 26.7 °C 26.5 °C 25.4 °C 24.7 °C 60000 m 0   0 cm 0 min 0 W/m² 1016.7 hPa
01:48 20.7 °C 17.1 °C 80 % 10 km/h (11 km/h) 0 mm0 mm 26.7 °C 26.5 °C 25.4 °C 24.7 °C 60000 m 0   0 cm 0 min 0 W/m² 1016.9 hPa
01:42 21.2 °C 17.4 °C 79 % 10 km/h (11 km/h) 0 mm0 mm 26.7 °C 26.5 °C 25.4 °C 24.7 °C 60000 m 0   0 cm 0 min 0 W/m² 1017 hPa
01:36 21.5 °C 17.5 °C 78 % 9 km/h (11 km/h) 0 mm0 mm 26.7 °C 26.4 °C 25.4 °C 24.7 °C 60000 m 0   0 cm 0 min 0 W/m² 1017 hPa
01:30 21.8 °C 17.2 °C 75 % 6 km/h (9 km/h) 0 mm0 mm 26.8 °C 26.5 °C 25.4 °C 24.7 °C 60000 m 0   0 cm 0 min 0 W/m² 1017.1 hPa
01:24 22.4 °C 17.5 °C 74 % 5 km/h (7 km/h) 0 mm0 mm 26.8 °C 26.4 °C 25.4 °C 24.7 °C 60000 m 0   0 cm 0 min 0 W/m² 1017 hPa
01:18 22.6 °C 17.5 °C 73 % 2 km/h (5 km/h) 0 mm0 mm 26.8 °C 26.5 °C 25.4 °C 24.7 °C 58130 m 0   0 cm 0 min 0 W/m² 1017 hPa
01:12 22.9 °C 17.6 °C 72 % 2 km/h (5 km/h) 0 mm0 mm 26.9 °C 26.5 °C 25.4 °C 24.7 °C 58130 m 0   0 cm 0 min 0 W/m² 1016.9 hPa
01:06 23.3 °C 17.5 °C 70 % 4 km/h (7 km/h) 0 mm0 mm 26.8 °C 26.5 °C 25.4 °C 24.7 °C 60000 m 0   0 cm 0 min 0 W/m² 1016.8 hPa
01:00 22.8 °C 17.7 °C 73 % 6 km/h (11 km/h) 0 mm0 mm 26.9 °C 26.4 °C 25.4 °C 24.7 °C 60000 m 0   0 cm 0 min 0 W/m² 1016.7 hPa
00:54 22.2 °C 17.8 °C 76 % 8 km/h (11 km/h) 0 mm0 mm 26.9 °C 26.5 °C 25.4 °C 24.7 °C 60000 m 0   0 cm 0 min 0 W/m² 1016.6 hPa
00:48 21.2 °C 17.8 °C 81 % 7 km/h (10 km/h) 0 mm0 mm 26.9 °C 26.4 °C 25.4 °C 24.7 °C 60000 m 0   0 cm 0 min 0 W/m² 1016.6 hPa
00:42 21.1 °C 17.7 °C 81 % 10 km/h (13 km/h) 0 mm0 mm 26.9 °C 26.5 °C 25.4 °C 24.7 °C 60000 m 0   0 cm 0 min 0 W/m² 1016.6 hPa
00:36 21.1 °C 17.7 °C 81 % 13 km/h (15 km/h) 0 mm0 mm 27 °C 26.4 °C 25.4 °C 24.7 °C 60000 m 0   0 cm 0 min 0 W/m² 1016.5 hPa
00:30 21.2 °C 17.6 °C 80 % 12 km/h (15 km/h) 0 mm0 mm 27 °C 26.4 °C 25.4 °C 24.7 °C 60000 m 0   0 cm 0 min 0 W/m² 1016.4 hPa
00:24 21.5 °C 17.7 °C 79 % 10 km/h (15 km/h) 0 mm0 mm 27 °C 26.4 °C 25.4 °C 24.7 °C 60000 m 0   0 cm 0 min 0 W/m² 1016.5 hPa
00:18 21.7 °C 17.7 °C 78 % 9 km/h (11 km/h) 0 mm0 mm 27.1 °C 26.4 °C 25.4 °C 24.7 °C 60000 m 0   0 cm 0 min 0 W/m² 1016.5 hPa
00:12 21.9 °C 18.3 °C 80 % 10 km/h (12 km/h) 0 mm0 mm 27.1 °C 26.4 °C 25.3 °C 24.7 °C 57720 m 0   0 cm 0 min 0 W/m² 1016.6 hPa
00:06 21.6 °C 18 °C 80 % 10 km/h (12 km/h) 0 mm0 mm 27.1 °C 26.4 °C 25.4 °C 24.7 °C 60000 m 0   0 cm 0 min 0 W/m² 1016.5 hPa
00:00 21.7 °C 17.9 °C 79 % 10 km/h (13 km/h) 0 mm0 mm 27.1 °C 26.4 °C 25.4 °C 24.7 °C 60000 m 0   0 cm 0 min 0 W/m² 1016.5 hPa

Données via Météo-France

Relevés météo à Marignane

Cette page rassemble les observations de la station de Marignane : température, humidité, vent, précipitations et pression atmosphérique. Les graphiques facilitent le suivi de la journée, tandis que le tableau donne accès aux mesures horaires et infra-horaires disponibles.

Pour replacer ces mesures dans leur contexte, consultez la climatologie de Marignane ainsi que ses normales et records. Retrouvez aussi la carte des observations météo en temps réel.